sensor_id;sensor_type;location;lat;lon;timestamp;temperature;humidity
35244;DHT22;37916;52.160;21.066;2022-09-13T00:04:45;9.40;86.70
35244;DHT22;37916;52.160;21.066;2022-09-13T00:14:46;9.50;87.50
35244;DHT22;37916;52.160;21.066;2022-09-13T00:24:47;9.60;87.50
35244;DHT22;37916;52.160;21.066;2022-09-13T00:34:48;9.40;86.50
35244;DHT22;37916;52.160;21.066;2022-09-13T00:44:58;9.40;86.70
35244;DHT22;37916;52.160;21.066;2022-09-13T00:55:04;9.30;87.00
35244;DHT22;37916;52.160;21.066;2022-09-13T01:05:08;9.10;86.90
35244;DHT22;37916;52.160;21.066;2022-09-13T01:15:09;9.00;87.00
35244;DHT22;37916;52.160;21.066;2022-09-13T01:56:35;8.70;87.60
35244;DHT22;37916;52.160;21.066;2022-09-13T02:17:08;8.40;87.80
35244;DHT22;37916;52.160;21.066;2022-09-13T02:27:14;8.30;87.60
35244;DHT22;37916;52.160;21.066;2022-09-13T02:37:16;8.10;87.40
35244;DHT22;37916;52.160;21.066;2022-09-13T02:57:40;7.90;87.50
35244;DHT22;37916;52.160;21.066;2022-09-13T03:07:41;7.80;87.90
35244;DHT22;37916;52.160;21.066;2022-09-13T03:37:56;7.50;87.50
35244;DHT22;37916;52.160;21.066;2022-09-13T03:47:58;7.40;87.60
35244;DHT22;37916;52.160;21.066;2022-09-13T03:58:00;7.40;87.40
35244;DHT22;37916;52.160;21.066;2022-09-13T04:08:04;7.20;87.50
35244;DHT22;37916;52.160;21.066;2022-09-13T04:18:05;7.20;87.50
35244;DHT22;37916;52.160;21.066;2022-09-13T04:28:05;7.20;88.40
35244;DHT22;37916;52.160;21.066;2022-09-13T04:38:06;7.10;87.90
35244;DHT22;37916;52.160;21.066;2022-09-13T04:48:13;7.20;87.70
35244;DHT22;37916;52.160;21.066;2022-09-13T04:58:17;7.30;88.20
35244;DHT22;37916;52.160;21.066;2022-09-13T05:08:18;7.50;88.90
35244;DHT22;37916;52.160;21.066;2022-09-13T05:18:28;8.00;89.50
35244;DHT22;37916;52.160;21.066;2022-09-13T05:28:31;8.60;88.70
35244;DHT22;37916;52.160;21.066;2022-09-13T05:38:33;9.20;87.40
35244;DHT22;37916;52.160;21.066;2022-09-13T05:48:35;10.30;81.80
35244;DHT22;37916;52.160;21.066;2022-09-13T05:58:43;11.20;79.50
35244;DHT22;37916;52.160;21.066;2022-09-13T06:08:46;12.00;77.70
35244;DHT22;37916;52.160;21.066;2022-09-13T06:18:47;12.80;76.10
35244;DHT22;37916;52.160;21.066;2022-09-13T06:28:49;13.80;74.50
35244;DHT22;37916;52.160;21.066;2022-09-13T06:49:02;16.10;70.80
35244;DHT22;37916;52.160;21.066;2022-09-13T06:59:05;16.90;66.40
35244;DHT22;37916;52.160;21.066;2022-09-13T07:09:10;17.00;70.20
35244;DHT22;37916;52.160;21.066;2022-09-13T07:19:31;17.20;68.10
35244;DHT22;37916;52.160;21.066;2022-09-13T07:29:32;17.80;68.10
35244;DHT22;37916;52.160;21.066;2022-09-13T07:39:40;17.60;67.80
35244;DHT22;37916;52.160;21.066;2022-09-13T07:49:46;16.00;70.90
35244;DHT22;37916;52.160;21.066;2022-09-13T07:59:47;16.80;69.90
35244;DHT22;37916;52.160;21.066;2022-09-13T08:09:51;18.10;68.40
35244;DHT22;37916;52.160;21.066;2022-09-13T08:19:54;18.60;68.00
35244;DHT22;37916;52.160;21.066;2022-09-13T08:29:57;17.90;67.50
35244;DHT22;37916;52.160;21.066;2022-09-13T08:40:00;17.20;69.70
35244;DHT22;37916;52.160;21.066;2022-09-13T09:10:32;16.90;73.50
35244;DHT22;37916;52.160;21.066;2022-09-13T09:20:48;17.40;70.90
35244;DHT22;37916;52.160;21.066;2022-09-13T09:41:03;18.70;66.90
35244;DHT22;37916;52.160;21.066;2022-09-13T09:51:07;20.00;62.90
35244;DHT22;37916;52.160;21.066;2022-09-13T10:01:17;20.90;60.10
35244;DHT22;37916;52.160;21.066;2022-09-13T10:11:19;21.40;59.00
35244;DHT22;37916;52.160;21.066;2022-09-13T10:21:24;21.50;58.30
35244;DHT22;37916;52.160;21.066;2022-09-13T10:31:38;21.90;57.90
35244;DHT22;37916;52.160;21.066;2022-09-13T10:41:41;22.10;56.80
35244;DHT22;37916;52.160;21.066;2022-09-13T10:51:42;22.20;54.90
35244;DHT22;37916;52.160;21.066;2022-09-13T11:54:05;23.40;51.70
35244;DHT22;37916;52.160;21.066;2022-09-13T12:04:22;23.50;52.50
35244;DHT22;37916;52.160;21.066;2022-09-13T12:14:30;23.70;51.70
35244;DHT22;37916;52.160;21.066;2022-09-13T12:24:42;23.70;50.10
35244;DHT22;37916;52.160;21.066;2022-09-13T12:34:53;23.60;52.40
35244;DHT22;37916;52.160;21.066;2022-09-13T12:45:09;23.30;53.40
35244;DHT22;37916;52.160;21.066;2022-09-13T13:05:46;21.80;57.50
35244;DHT22;37916;52.160;21.066;2022-09-13T14:29:33;20.80;61.30
35244;DHT22;37916;52.160;21.066;2022-09-13T14:39:36;21.00;61.70
35244;DHT22;37916;52.160;21.066;2022-09-13T15:22:56;20.00;65.90
35244;DHT22;37916;52.160;21.066;2022-09-13T15:33:27;19.70;65.80
35244;DHT22;37916;52.160;21.066;2022-09-13T15:53:56;19.20;67.30
35244;DHT22;37916;52.160;21.066;2022-09-13T16:04:00;19.00;67.90
35244;DHT22;37916;52.160;21.066;2022-09-13T17:26:59;17.50;73.10
35244;DHT22;37916;52.160;21.066;2022-09-13T17:37:12;17.30;73.70
35244;DHT22;37916;52.160;21.066;2022-09-13T19:02:09;16.80;74.10
35244;DHT22;37916;52.160;21.066;2022-09-13T19:12:41;16.80;74.00
35244;DHT22;37916;52.160;21.066;2022-09-13T19:46:27;16.70;74.10
35244;DHT22;37916;52.160;21.066;2022-09-13T19:56:49;16.50;74.40
35244;DHT22;37916;52.160;21.066;2022-09-13T20:06:56;16.60;74.20
35244;DHT22;37916;52.160;21.066;2022-09-13T20:17:38;16.60;74.20
35244;DHT22;37916;52.160;21.066;2022-09-13T20:28:06;16.70;74.20
35244;DHT22;37916;52.160;21.066;2022-09-13T20:49:16;16.70;74.20
35244;DHT22;37916;52.160;21.066;2022-09-13T20:59:35;16.70;74.30
35244;DHT22;37916;52.160;21.066;2022-09-13T21:32:07;16.60;76.20
35244;DHT22;37916;52.160;21.066;2022-09-13T21:42:14;16.50;76.10
35244;DHT22;37916;52.160;21.066;2022-09-13T21:52:15;16.50;77.00
35244;DHT22;37916;52.160;21.066;2022-09-13T22:02:25;16.50;79.00
35244;DHT22;37916;52.160;21.066;2022-09-13T22:12:32;16.40;81.20
35244;DHT22;37916;52.160;21.066;2022-09-13T22:22:43;16.30;83.80
35244;DHT22;37916;52.160;21.066;2022-09-13T22:33:02;16.20;85.20
35244;DHT22;37916;52.160;21.066;2022-09-13T22:43:16;16.10;87.20
35244;DHT22;37916;52.160;21.066;2022-09-13T22:53:32;16.10;88.30
35244;DHT22;37916;52.160;21.066;2022-09-13T23:03:38;16.00;88.90
35244;DHT22;37916;52.160;21.066;2022-09-13T23:13:40;16.00;89.20
35244;DHT22;37916;52.160;21.066;2022-09-13T23:24:04;16.10;89.30
35244;DHT22;37916;52.160;21.066;2022-09-13T23:34:10;16.10;89.80
35244;DHT22;37916;52.160;21.066;2022-09-13T23:44:12;16.10;90.20
35244;DHT22;37916;52.160;21.066;2022-09-13T23:54:32;16.10;90.40
